Frio Chikuma — 3FWG8 — position and weather

sailwx.info

Track history (hours):
 
Tides and Currents Weather Stations Pressure Air Temp Water Temp Dewpoint Dewpoint Depression Visibility Wind Speed Wind Dir Waves Ship Positions

Frio Chikuma

Last reported at 2018-Feb-05 22:03 UTC. Time now 2018-Apr-23 23:27 UTC.
Position N 06°09' E 002°30'.
Warning: this ship's position is months out of date.

; draft 6 m.

Type: Cargo ship. MMSI: 353306000.

Date/timePositionNaut miles runAvg speedWind from/ knotsBaromVisibWave heightAir tempDewpointWater temp
2018-Feb-05 22:03N 06°09' E 002°30'212.5
2018-Feb-05 21:54N 06°07' E 002°29'20 9.5
2018-Feb-05 19:49N 05°47' E 002°29'2014.4
2018-Feb-05 18:24N 06°08' E 002°29'810.3
2018-Feb-05 17:37N 06°16' E 002°30'1 3.0
2018-Feb-05 17:20N 06°17' E 002°30'0 0.0
2018-Feb-05 16:55N 06°17' E 002°30'0 0.0
2018-Feb-05 16:30N 06°17' E 002°30'0 0.0
2018-Feb-05 15:58N 06°17' E 002°30'0 0.0
2018-Feb-05 15:28N 06°17' E 002°30'0 0.0
2018-Feb-05 14:56N 06°17' E 002°30'0 0.0
2018-Feb-05 14:27N 06°17' E 002°30'0 0.0
2018-Feb-05 14:00N 06°17' E 002°30'71 4.0
2018-Feb-04 20:00N 05°55' E 001°22'611.0
2018-Feb-04 19:29N 05°60' E 001°18'4 8.6
2018-Feb-04 19:00N 06°03' E 001°17'0 0.3
2018-Feb-04 18:29N 06°04' E 001°17'0 0.0
2018-Feb-04 17:59N 06°04' E 001°17'0 0.0
2018-Feb-04 17:29N 06°04' E 001°17'0 0.0
2018-Feb-04 15:20N 06°04' E 001°17'0 0.0
2018-Feb-04 08:39N 06°04' E 001°17'0 0.2
2018-Feb-04 08:17N 06°03' E 001°17'2 4.8
2018-Feb-04 07:51N 06°04' E 001°19'910.1
2018-Feb-04 06:57N 05°55' E 001°17'7413.5
2018-Feb-04 01:28N 04°48' E 000°45'815.2
2018-Feb-04 00:58N 04°48' E 000°37'914.7
2018-Feb-04 00:22N 04°46' E 000°29'513.3
2018-Feb-04 00:00N 04°45' E 000°24'815.1
2018-Feb-03 23:30N 04°52' E 000°21'1115.0
2018-Feb-03 22:47N 05°02' E 000°17'514.6
2018-Feb-03 22:28N 05°06' E 000°15'714.2
2018-Feb-03 22:00N 05°12' E 000°12'814.3
2018-Feb-03 21:28N 05°19' E 000°09'714.3
2018-Feb-03 21:00N 05°25' E 000°07'713.1
2018-Feb-03 20:30N 05°31' E 000°04'510.0
2018-Feb-03 20:00N 05°36' E 000°03'3 1.8
2018-Feb-03 18:30N 05°38' E 000°00'0 0.0
2018-Feb-03 18:00N 05°38' E 000°00'0 0.0
2018-Feb-03 17:30N 05°38' E 000°00'0 0.0
2018-Feb-03 17:00N 05°38' E 000°00'0 0.0
2018-Feb-03 16:00N 05°38' E 000°00'0 0.0
2018-Feb-03 15:30N 05°38' E 000°00'0 0.0
2018-Feb-03 15:00N 05°38' E 000°00'0 0.0
2018-Feb-03 14:30N 05°38' E 000°00'0 0.0
2018-Feb-03 14:00N 05°38' E 000°00'0 0.0
2018-Feb-03 13:30N 05°38' E 000°00'0 0.0
2018-Feb-03 13:00N 05°38' E 000°00'0 0.0
2018-Feb-03 12:30N 05°38' E 000°00'0 0.0
2018-Feb-03 12:00N 05°38' E 000°00'0 0.0
2018-Feb-03 11:30N 05°38' E 000°00'0 0.0
2018-Feb-03 11:00N 05°38' E 000°00'0 0.0
2018-Feb-03 10:30N 05°38' E 000°00'0 0.0
2018-Feb-03 10:00N 05°38' E 000°00'0 0.0
2018-Feb-03 09:30N 05°38' E 000°00'0 0.0
2018-Feb-03 09:00N 05°38' E 000°00'0 0.0
2018-Feb-03 08:30N 05°38' E 000°00'0 0.0
2018-Feb-03 08:00N 05°38' E 000°00'0 0.0
2018-Feb-03 06:30N 05°38' E 000°00'0 0.0
2018-Feb-03 06:00N 05°38' E 000°00'0 0.0
2018-Feb-03 05:30N 05°38' E 000°00'0 0.0
2018-Feb-03 05:00N 05°38' E 000°00'0 0.0
2018-Feb-03 04:00N 05°38' E 000°00'0 0.0
2018-Feb-03 03:30N 05°38' E 000°00'0 0.0
2018-Feb-03 02:00N 05°38' E 000°00'0 0.0
2018-Feb-03 01:30N 05°38' E 000°00'0 0.0
2018-Feb-03 01:00N 05°38' E 000°00'0 0.0
2018-Feb-03 00:30N 05°38' E 000°00'0 0.0
2018-Feb-03 00:00N 05°38' E 000°00'0 0.0
2018-Feb-02 23:30N 05°38' E 000°00'0 0.0
2018-Feb-02 23:00N 05°38' E 000°00'0 0.0
2018-Feb-02 22:31N 05°38' E 000°00'0 0.0
2018-Feb-02 22:00N 05°38' E 000°00'0 0.0
2018-Feb-02 21:30N 05°38' E 000°00'0 0.0
2018-Feb-02 21:00N 05°38' E 000°00'0 0.0
2018-Feb-02 20:31N 05°38' E 000°00'0 0.0
2018-Feb-02 20:00N 05°38' E 000°00'0 0.0
2018-Feb-02 19:00N 05°38' E 000°00'0 0.0
2018-Feb-02 18:30N 05°38' E 000°00'0 0.0
2018-Feb-02 18:00N 05°38' E 000°00'0 0.0
2018-Feb-02 17:30N 05°38' E 000°00'0 0.0
2018-Feb-02 17:00N 05°38' E 000°00'0 0.0
2018-Feb-02 16:30N 05°38' E 000°00'0 0.0
2018-Feb-02 15:30N 05°38' E 000°00'0 0.0
2018-Feb-02 14:30N 05°38' E 000°00'0 0.0
2018-Feb-02 14:00N 05°38' E 000°00'0 0.0
2018-Feb-02 13:30N 05°38' E 000°00'0 0.0
2018-Feb-02 13:00N 05°38' E 000°00'0 0.0
2018-Feb-02 12:30N 05°38' E 000°00'0 0.0
2018-Feb-02 12:00N 05°38' E 000°00'0 0.0
2018-Feb-02 11:30N 05°38' E 000°00'0 0.0
2018-Feb-02 11:00N 05°38' E 000°00'0 0.0
2018-Feb-02 10:30N 05°38' E 000°00'0 0.0
2018-Feb-02 10:00N 05°38' E 000°00'0 0.0
2018-Feb-02 09:30N 05°38' E 000°00'0 0.0
2018-Feb-02 09:00N 05°38' E 000°00'0 0.0
2018-Feb-02 08:30N 05°38' E 000°00'0 0.0
2018-Feb-02 08:00N 05°38' E 000°00'0 0.0
2018-Feb-02 07:30N 05°38' E 000°00'0 0.0
2018-Feb-02 07:00N 05°38' E 000°00'0 0.0
2018-Feb-02 06:30N 05°38' E 000°00'0 0.0
2018-Feb-02 06:00N 05°38' E 000°00'0 0.0
2018-Feb-02 05:30N 05°38' E 000°00'0 0.0
2018-Feb-02 05:00N 05°38' E 000°00'0 0.0
2018-Feb-02 04:30N 05°38' E 000°00'0 0.0
2018-Feb-02 04:00N 05°38' E 000°00'0 0.0
2018-Feb-02 03:30N 05°38' E 000°00'0 0.0
2018-Feb-02 03:00N 05°38' E 000°00'0 0.0
2018-Feb-02 02:30N 05°38' E 000°00'0 0.0
2018-Feb-02 02:00N 05°38' E 000°00'0 0.0
2018-Feb-02 01:30N 05°38' E 000°00'0 0.0
2018-Feb-02 01:00N 05°38' E 000°00'0 0.0
2018-Feb-02 00:30N 05°38' E 000°00'0 0.0
2018-Feb-02 00:00N 05°38' E 000°00'0 0.0
2018-Feb-01 23:30N 05°38' E 000°00'0 0.0
2018-Feb-01 23:00N 05°38' E 000°00'0 0.0
2018-Feb-01 22:00N 05°38' E 000°00'0 0.0
2018-Feb-01 21:30N 05°38' E 000°00'0 0.0
2018-Feb-01 19:30N 05°38' E 000°00'0 0.0
2018-Feb-01 19:00N 05°38' E 000°00'0 0.0
2018-Feb-01 18:30N 05°38' E 000°00'0 0.0
2018-Feb-01 18:00N 05°38' E 000°00'0 0.0
2018-Feb-01 17:30N 05°38' E 000°00'0 0.0
2018-Feb-01 17:00N 05°38' E 000°00'0 0.0
2018-Feb-01 16:30N 05°38' E 000°00'0 0.0
2018-Feb-01 16:00N 05°38' E 000°00'0 0.0
2018-Feb-01 15:30N 05°38' E 000°00'0 0.0
2018-Feb-01 15:00N 05°38' E 000°00'0 0.0
2018-Feb-01 13:30N 05°38' E 000°00'0 0.0
2018-Feb-01 13:00N 05°38' E 000°00'0 0.0
2018-Feb-01 12:30N 05°38' E 000°00'0 0.0
2018-Feb-01 12:00N 05°38' E 000°00'0 0.0
2018-Feb-01 11:00N 05°38' E 000°00'0 0.0
2018-Feb-01 10:30N 05°38' E 000°00'0 0.0
2018-Feb-01 10:00N 05°38' E 000°00'0 0.0
2018-Feb-01 09:30N 05°38' E 000°00'0 0.0
2018-Feb-01 09:00N 05°38' E 000°00'0 0.0
2018-Feb-01 08:30N 05°38' E 000°00'0 0.0
2018-Feb-01 07:30N 05°38' E 000°00'0 0.0
2018-Feb-01 07:00N 05°38' E 000°00'0 0.0
2018-Feb-01 06:30N 05°38' E 000°00'0 0.0
2018-Feb-01 06:00N 05°38' E 000°00'0 0.0
2018-Feb-01 05:30N 05°38' E 000°00'0 0.0
2018-Feb-01 05:00N 05°38' E 000°00'0 0.0
2018-Feb-01 04:30N 05°38' E 000°00'0 0.0
2018-Feb-01 04:00N 05°38' E 000°00'0 0.0
2018-Feb-01 03:00N 05°38' E 000°00'0 0.0
2018-Feb-01 02:30N 05°38' E 000°00'0 0.0
2018-Feb-01 02:00N 05°38' E 000°00'0 0.0
2018-Feb-01 01:30N 05°38' E 000°00'0 0.0
2018-Feb-01 01:00N 05°38' E 000°00'0 0.0
2018-Feb-01 00:30N 05°38' E 000°00'0 0.0
2018-Feb-01 00:00N 05°38' E 000°00'0 0.0
2018-Jan-31 23:00N 05°38' E 000°00'0 0.0
2018-Jan-31 22:30N 05°38' E 000°00'0 0.0
2018-Jan-31 21:00N 05°38' E 000°00'0 0.0
2018-Jan-31 20:30N 05°38' E 000°00'0 0.0
2018-Jan-31 20:00N 05°38' E 000°00'0 0.0
2018-Jan-31 19:31N 05°38' E 000°00'0 0.0
2018-Jan-31 19:00N 05°38' E 000°00'0 0.0
2018-Jan-31 18:30N 05°38' E 000°00'0 0.0
2018-Jan-31 18:00N 05°38' E 000°00'0 0.0
2018-Jan-31 17:30N 05°38' E 000°00'0 0.0
2018-Jan-31 17:00N 05°38' E 000°00'0 0.0
2018-Jan-31 16:30N 05°38' E 000°00'0 0.0
2018-Jan-31 16:00N 05°38' E 000°00'0 0.0
2018-Jan-31 15:30N 05°38' E 000°00'0 0.0
2018-Jan-31 15:00N 05°38' E 000°00'0 0.0
2018-Jan-31 14:30N 05°38' E 000°00'0 0.0
2018-Jan-31 13:00N 05°38' E 000°00'0 0.0
2018-Jan-31 12:30N 05°38' E 000°00'0 0.0
2018-Jan-31 12:00N 05°38' E 000°00'0 0.0
2018-Jan-31 11:30N 05°38' E 000°00'0 0.0
2018-Jan-31 11:00N 05°38' E 000°00'0 0.0
2018-Jan-31 10:30N 05°38' E 000°00'0 0.0
2018-Jan-31 10:00N 05°38' E 000°00'0 0.0
2018-Jan-31 09:30N 05°38' E 000°00'0 0.0
2018-Jan-31 09:00N 05°38' E 000°00'0 0.0
2018-Jan-31 08:30N 05°38' E 000°00'0 0.0
2018-Jan-31 08:00N 05°38' E 000°00'0 0.0
2018-Jan-31 07:30N 05°38' E 000°00'0 0.0
2018-Jan-31 07:00N 05°38' E 000°00'0 0.0
2018-Jan-31 06:30N 05°38' E 000°00'0 0.0
2018-Jan-31 06:00N 05°38' E 000°00'0 0.0
2018-Jan-31 05:30N 05°38' E 000°00'0 0.0
2018-Jan-31 05:00N 05°38' E 000°00'0 0.0
2018-Jan-31 04:30N 05°38' E 000°00'0 0.0
2018-Jan-31 04:00N 05°38' E 000°00'0 0.0
2018-Jan-31 03:30N 05°38' E 000°00'0 0.0
2018-Jan-31 03:00N 05°38' E 000°00'0 0.0
2018-Jan-31 02:30N 05°38' E 000°00'0 0.0
2018-Jan-31 02:00N 05°38' E 000°00'0 0.0
2018-Jan-31 01:30N 05°38' E 000°00'0 0.0
2018-Jan-31 01:00N 05°38' E 000°00'0 0.0
2018-Jan-31 00:00N 05°38' E 000°00'0 0.0
2018-Jan-30 23:30N 05°38' E 000°00'0 0.0
2018-Jan-30 23:00N 05°38' E 000°00'0 0.0
2018-Jan-30 22:30N 05°38' E 000°00'0 0.0
2018-Jan-30 21:30N 05°38' E 000°00'1 2.5
2018-Jan-30 21:00N 05°38' E 000°02'2 3.1
2018-Jan-30 20:31N 05°37' E 000°03'0 0.1
2018-Jan-30 19:59N 05°37' E 000°03'0 0.9
2018-Jan-30 19:30N 05°37' E 000°03'2 3.0
2018-Jan-30 18:58N 05°35' E 000°04'0 0.1
2018-Jan-30 18:30N 05°35' E 000°04'0 0.0
2018-Jan-30 18:00N 05°35' E 000°04'0 0.0
2018-Jan-30 17:30N 05°35' E 000°04'0 0.1
2018-Jan-30 17:00N 05°35' E 000°04'1 1.8
2018-Jan-30 16:30N 05°36' E 000°04'611.7
2018-Jan-30 15:59N 05°30' E 000°05'714.1
2018-Jan-30 15:29N 05°23' E 000°08'714.6
2018-Jan-30 15:00N 05°17' E 000°10'714.7
2018-Jan-30 14:30N 05°10' E 000°13'1414.4
2018-Jan-30 13:30N 04°57' E 000°18'53 3.1
2018-Jan-29 20:27N 04°04' E 000°28'14 1.0
2018-Jan-29 06:17N 03°56' E 000°18'0 0.7
2018-Jan-29 05:59N 03°56' E 000°17'17 2.2
2018-Jan-28 21:59N 04°08' E 000°30'510.6
2018-Jan-28 21:30N 04°11' E 000°34'510.5
2018-Jan-28 21:00N 04°15' E 000°37'610.3
2018-Jan-28 20:26N 04°19' E 000°42'3 7.7
2018-Jan-28 20:00N 04°21' E 000°44'1 1.2
2018-Jan-28 19:20N 04°21' E 000°43'0 1.4
2018-Jan-28 19:00N 04°21' E 000°43'2 1.4
2018-Jan-28 17:43N 04°20' E 000°41'29 1.3
2018-Jan-27 20:07N 03°60' E 000°21'6 0.8
2018-Jan-27 12:27N 03°59' E 000°27'1 1.3
2018-Jan-27 11:38N 03°58' E 000°26'1 1.3
2018-Jan-27 11:04N 03°57' E 000°26'0 1.3
2018-Jan-27 10:58N 03°57' E 000°26'2 1.4
2018-Jan-27 09:38N 03°55' E 000°25'0 1.3
2018-Jan-27 09:29N 03°55' E 000°25'1 1.3
2018-Jan-27 08:55N 03°55' E 000°25'1 1.3
2018-Jan-27 08:22N 03°54' E 000°24'  
Track history (hours):
 
Tides and Currents Weather Stations Pressure Air Temp Water Temp Dewpoint Dewpoint Depression Visibility Wind Speed Wind Dir Waves Ship Positions

Frio Chikuma

Last reported at 2018-Feb-05 22:03 UTC. Time now 2018-Apr-23 23:27 UTC.
Position N 06°09' E 002°30'.
Warning: this ship's position is months out of date.

; draft 6 m.

Type: Cargo ship. MMSI: 353306000.

Date/timePositionNaut miles runAvg speedWind from/ knotsBaromVisibWave heightAir tempDewpointWater temp
2018-Feb-05 22:03N 06°09' E 002°30'212.5
2018-Feb-05 21:54N 06°07' E 002°29'20 9.5
2018-Feb-05 19:49N 05°47' E 002°29'2014.4
2018-Feb-05 18:24N 06°08' E 002°29'810.3
2018-Feb-05 17:37N 06°16' E 002°30'1 3.0
2018-Feb-05 17:20N 06°17' E 002°30'0 0.0
2018-Feb-05 16:55N 06°17' E 002°30'0 0.0
2018-Feb-05 16:30N 06°17' E 002°30'0 0.0
2018-Feb-05 15:58N 06°17' E 002°30'0 0.0
2018-Feb-05 15:28N 06°17' E 002°30'0 0.0
2018-Feb-05 14:56N 06°17' E 002°30'0 0.0
2018-Feb-05 14:27N 06°17' E 002°30'0 0.0
2018-Feb-05 14:00N 06°17' E 002°30'71 4.0
2018-Feb-04 20:00N 05°55' E 001°22'611.0
2018-Feb-04 19:29N 05°60' E 001°18'4 8.6
2018-Feb-04 19:00N 06°03' E 001°17'0 0.3
2018-Feb-04 18:29N 06°04' E 001°17'0 0.0
2018-Feb-04 17:59N 06°04' E 001°17'0 0.0
2018-Feb-04 17:29N 06°04' E 001°17'0 0.0
2018-Feb-04 15:20N 06°04' E 001°17'0 0.0
2018-Feb-04 08:39N 06°04' E 001°17'0 0.2
2018-Feb-04 08:17N 06°03' E 001°17'2 4.8
2018-Feb-04 07:51N 06°04' E 001°19'910.1
2018-Feb-04 06:57N 05°55' E 001°17'7413.5
2018-Feb-04 01:28N 04°48' E 000°45'815.2
2018-Feb-04 00:58N 04°48' E 000°37'914.7
2018-Feb-04 00:22N 04°46' E 000°29'513.3
2018-Feb-04 00:00N 04°45' E 000°24'815.1
2018-Feb-03 23:30N 04°52' E 000°21'1115.0
2018-Feb-03 22:47N 05°02' E 000°17'514.6
2018-Feb-03 22:28N 05°06' E 000°15'714.2
2018-Feb-03 22:00N 05°12' E 000°12'814.3
2018-Feb-03 21:28N 05°19' E 000°09'714.3
2018-Feb-03 21:00N 05°25' E 000°07'713.1
2018-Feb-03 20:30N 05°31' E 000°04'510.0
2018-Feb-03 20:00N 05°36' E 000°03'3 1.8
2018-Feb-03 18:30N 05°38' E 000°00'0 0.0
2018-Feb-03 18:00N 05°38' E 000°00'0 0.0
2018-Feb-03 17:30N 05°38' E 000°00'0 0.0
2018-Feb-03 17:00N 05°38' E 000°00'0 0.0
2018-Feb-03 16:00N 05°38' E 000°00'0 0.0
2018-Feb-03 15:30N 05°38' E 000°00'0 0.0
2018-Feb-03 15:00N 05°38' E 000°00'0 0.0
2018-Feb-03 14:30N 05°38' E 000°00'0 0.0
2018-Feb-03 14:00N 05°38' E 000°00'0 0.0
2018-Feb-03 13:30N 05°38' E 000°00'0 0.0
2018-Feb-03 13:00N 05°38' E 000°00'0 0.0
2018-Feb-03 12:30N 05°38' E 000°00'0 0.0
2018-Feb-03 12:00N 05°38' E 000°00'0 0.0
2018-Feb-03 11:30N 05°38' E 000°00'0 0.0
2018-Feb-03 11:00N 05°38' E 000°00'0 0.0
2018-Feb-03 10:30N 05°38' E 000°00'0 0.0
2018-Feb-03 10:00N 05°38' E 000°00'0 0.0
2018-Feb-03 09:30N 05°38' E 000°00'0 0.0
2018-Feb-03 09:00N 05°38' E 000°00'0 0.0
2018-Feb-03 08:30N 05°38' E 000°00'0 0.0
2018-Feb-03 08:00N 05°38' E 000°00'0 0.0
2018-Feb-03 06:30N 05°38' E 000°00'0 0.0
2018-Feb-03 06:00N 05°38' E 000°00'0 0.0
2018-Feb-03 05:30N 05°38' E 000°00'0 0.0
2018-Feb-03 05:00N 05°38' E 000°00'0 0.0
2018-Feb-03 04:00N 05°38' E 000°00'0 0.0
2018-Feb-03 03:30N 05°38' E 000°00'0 0.0
2018-Feb-03 02:00N 05°38' E 000°00'0 0.0
2018-Feb-03 01:30N 05°38' E 000°00'0 0.0
2018-Feb-03 01:00N 05°38' E 000°00'0 0.0
2018-Feb-03 00:30N 05°38' E 000°00'0 0.0
2018-Feb-03 00:00N 05°38' E 000°00'0 0.0
2018-Feb-02 23:30N 05°38' E 000°00'0 0.0
2018-Feb-02 23:00N 05°38' E 000°00'0 0.0
2018-Feb-02 22:31N 05°38' E 000°00'0 0.0
2018-Feb-02 22:00N 05°38' E 000°00'0 0.0
2018-Feb-02 21:30N 05°38' E 000°00'0 0.0
2018-Feb-02 21:00N 05°38' E 000°00'0 0.0
2018-Feb-02 20:31N 05°38' E 000°00'0 0.0
2018-Feb-02 20:00N 05°38' E 000°00'0 0.0
2018-Feb-02 19:00N 05°38' E 000°00'0 0.0
2018-Feb-02 18:30N 05°38' E 000°00'0 0.0
2018-Feb-02 18:00N 05°38' E 000°00'0 0.0
2018-Feb-02 17:30N 05°38' E 000°00'0 0.0
2018-Feb-02 17:00N 05°38' E 000°00'0 0.0
2018-Feb-02 16:30N 05°38' E 000°00'0 0.0
2018-Feb-02 15:30N 05°38' E 000°00'0 0.0
2018-Feb-02 14:30N 05°38' E 000°00'0 0.0
2018-Feb-02 14:00N 05°38' E 000°00'0 0.0
2018-Feb-02 13:30N 05°38' E 000°00'0 0.0
2018-Feb-02 13:00N 05°38' E 000°00'0 0.0
2018-Feb-02 12:30N 05°38' E 000°00'0 0.0
2018-Feb-02 12:00N 05°38' E 000°00'0 0.0
2018-Feb-02 11:30N 05°38' E 000°00'0 0.0
2018-Feb-02 11:00N 05°38' E 000°00'0 0.0
2018-Feb-02 10:30N 05°38' E 000°00'0 0.0
2018-Feb-02 10:00N 05°38' E 000°00'0 0.0
2018-Feb-02 09:30N 05°38' E 000°00'0 0.0
2018-Feb-02 09:00N 05°38' E 000°00'0 0.0
2018-Feb-02 08:30N 05°38' E 000°00'0 0.0
2018-Feb-02 08:00N 05°38' E 000°00'0 0.0
2018-Feb-02 07:30N 05°38' E 000°00'0 0.0
2018-Feb-02 07:00N 05°38' E 000°00'0 0.0
2018-Feb-02 06:30N 05°38' E 000°00'0 0.0
2018-Feb-02 06:00N 05°38' E 000°00'0 0.0
2018-Feb-02 05:30N 05°38' E 000°00'0 0.0
2018-Feb-02 05:00N 05°38' E 000°00'0 0.0
2018-Feb-02 04:30N 05°38' E 000°00'0 0.0
2018-Feb-02 04:00N 05°38' E 000°00'0 0.0
2018-Feb-02 03:30N 05°38' E 000°00'0 0.0
2018-Feb-02 03:00N 05°38' E 000°00'0 0.0
2018-Feb-02 02:30N 05°38' E 000°00'0 0.0
2018-Feb-02 02:00N 05°38' E 000°00'0 0.0
2018-Feb-02 01:30N 05°38' E 000°00'0 0.0
2018-Feb-02 01:00N 05°38' E 000°00'0 0.0
2018-Feb-02 00:30N 05°38' E 000°00'0 0.0
2018-Feb-02 00:00N 05°38' E 000°00'0 0.0
2018-Feb-01 23:30N 05°38' E 000°00'0 0.0
2018-Feb-01 23:00N 05°38' E 000°00'0 0.0
2018-Feb-01 22:00N 05°38' E 000°00'0 0.0
2018-Feb-01 21:30N 05°38' E 000°00'0 0.0
2018-Feb-01 19:30N 05°38' E 000°00'0 0.0
2018-Feb-01 19:00N 05°38' E 000°00'0 0.0
2018-Feb-01 18:30N 05°38' E 000°00'0 0.0
2018-Feb-01 18:00N 05°38' E 000°00'0 0.0
2018-Feb-01 17:30N 05°38' E 000°00'0 0.0
2018-Feb-01 17:00N 05°38' E 000°00'0 0.0
2018-Feb-01 16:30N 05°38' E 000°00'0 0.0
2018-Feb-01 16:00N 05°38' E 000°00'0 0.0
2018-Feb-01 15:30N 05°38' E 000°00'0 0.0
2018-Feb-01 15:00N 05°38' E 000°00'0 0.0
2018-Feb-01 13:30N 05°38' E 000°00'0 0.0
2018-Feb-01 13:00N 05°38' E 000°00'0 0.0
2018-Feb-01 12:30N 05°38' E 000°00'0 0.0
2018-Feb-01 12:00N 05°38' E 000°00'0 0.0
2018-Feb-01 11:00N 05°38' E 000°00'0 0.0
2018-Feb-01 10:30N 05°38' E 000°00'0 0.0
2018-Feb-01 10:00N 05°38' E 000°00'0 0.0
2018-Feb-01 09:30N 05°38' E 000°00'0 0.0
2018-Feb-01 09:00N 05°38' E 000°00'0 0.0
2018-Feb-01 08:30N 05°38' E 000°00'0 0.0
2018-Feb-01 07:30N 05°38' E 000°00'0 0.0
2018-Feb-01 07:00N 05°38' E 000°00'0 0.0
2018-Feb-01 06:30N 05°38' E 000°00'0 0.0
2018-Feb-01 06:00N 05°38' E 000°00'0 0.0
2018-Feb-01 05:30N 05°38' E 000°00'0 0.0
2018-Feb-01 05:00N 05°38' E 000°00'0 0.0
2018-Feb-01 04:30N 05°38' E 000°00'0 0.0
2018-Feb-01 04:00N 05°38' E 000°00'0 0.0
2018-Feb-01 03:00N 05°38' E 000°00'0 0.0
2018-Feb-01 02:30N 05°38' E 000°00'0 0.0
2018-Feb-01 02:00N 05°38' E 000°00'0 0.0
2018-Feb-01 01:30N 05°38' E 000°00'0 0.0
2018-Feb-01 01:00N 05°38' E 000°00'0 0.0
2018-Feb-01 00:30N 05°38' E 000°00'0 0.0
2018-Feb-01 00:00N 05°38' E 000°00'0 0.0
2018-Jan-31 23:00N 05°38' E 000°00'0 0.0
2018-Jan-31 22:30N 05°38' E 000°00'0 0.0
2018-Jan-31 21:00N 05°38' E 000°00'0 0.0
2018-Jan-31 20:30N 05°38' E 000°00'0 0.0
2018-Jan-31 20:00N 05°38' E 000°00'0 0.0
2018-Jan-31 19:31N 05°38' E 000°00'0 0.0
2018-Jan-31 19:00N 05°38' E 000°00'0 0.0
2018-Jan-31 18:30N 05°38' E 000°00'0 0.0
2018-Jan-31 18:00N 05°38' E 000°00'0 0.0
2018-Jan-31 17:30N 05°38' E 000°00'0 0.0
2018-Jan-31 17:00N 05°38' E 000°00'0 0.0
2018-Jan-31 16:30N 05°38' E 000°00'0 0.0
2018-Jan-31 16:00N 05°38' E 000°00'0 0.0
2018-Jan-31 15:30N 05°38' E 000°00'0 0.0
2018-Jan-31 15:00N 05°38' E 000°00'0 0.0
2018-Jan-31 14:30N 05°38' E 000°00'0 0.0
2018-Jan-31 13:00N 05°38' E 000°00'0 0.0
2018-Jan-31 12:30N 05°38' E 000°00'0 0.0
2018-Jan-31 12:00N 05°38' E 000°00'0 0.0
2018-Jan-31 11:30N 05°38' E 000°00'0 0.0
2018-Jan-31 11:00N 05°38' E 000°00'0 0.0
2018-Jan-31 10:30N 05°38' E 000°00'0 0.0
2018-Jan-31 10:00N 05°38' E 000°00'0 0.0
2018-Jan-31 09:30N 05°38' E 000°00'0 0.0
2018-Jan-31 09:00N 05°38' E 000°00'0 0.0
2018-Jan-31 08:30N 05°38' E 000°00'0 0.0
2018-Jan-31 08:00N 05°38' E 000°00'0 0.0
2018-Jan-31 07:30N 05°38' E 000°00'0 0.0
2018-Jan-31 07:00N 05°38' E 000°00'0 0.0
2018-Jan-31 06:30N 05°38' E 000°00'0 0.0
2018-Jan-31 06:00N 05°38' E 000°00'0 0.0
2018-Jan-31 05:30N 05°38' E 000°00'0 0.0
2018-Jan-31 05:00N 05°38' E 000°00'0 0.0
2018-Jan-31 04:30N 05°38' E 000°00'0 0.0
2018-Jan-31 04:00N 05°38' E 000°00'0 0.0
2018-Jan-31 03:30N 05°38' E 000°00'0 0.0
2018-Jan-31 03:00N 05°38' E 000°00'0 0.0
2018-Jan-31 02:30N 05°38' E 000°00'0 0.0
2018-Jan-31 02:00N 05°38' E 000°00'0 0.0
2018-Jan-31 01:30N 05°38' E 000°00'0 0.0
2018-Jan-31 01:00N 05°38' E 000°00'0 0.0
2018-Jan-31 00:00N 05°38' E 000°00'0 0.0
2018-Jan-30 23:30N 05°38' E 000°00'0 0.0
2018-Jan-30 23:00N 05°38' E 000°00'0 0.0
2018-Jan-30 22:30N 05°38' E 000°00'0 0.0
2018-Jan-30 21:30N 05°38' E 000°00'1 2.5
2018-Jan-30 21:00N 05°38' E 000°02'2 3.1
2018-Jan-30 20:31N 05°37' E 000°03'0 0.1
2018-Jan-30 19:59N 05°37' E 000°03'0 0.9
2018-Jan-30 19:30N 05°37' E 000°03'2 3.0
2018-Jan-30 18:58N 05°35' E 000°04'0 0.1
2018-Jan-30 18:30N 05°35' E 000°04'0 0.0
2018-Jan-30 18:00N 05°35' E 000°04'0 0.0
2018-Jan-30 17:30N 05°35' E 000°04'0 0.1
2018-Jan-30 17:00N 05°35' E 000°04'1 1.8
2018-Jan-30 16:30N 05°36' E 000°04'611.7
2018-Jan-30 15:59N 05°30' E 000°05'714.1
2018-Jan-30 15:29N 05°23' E 000°08'714.6
2018-Jan-30 15:00N 05°17' E 000°10'714.7
2018-Jan-30 14:30N 05°10' E 000°13'1414.4
2018-Jan-30 13:30N 04°57' E 000°18'53 3.1
2018-Jan-29 20:27N 04°04' E 000°28'14 1.0
2018-Jan-29 06:17N 03°56' E 000°18'0 0.7
2018-Jan-29 05:59N 03°56' E 000°17'17 2.2
2018-Jan-28 21:59N 04°08' E 000°30'510.6
2018-Jan-28 21:30N 04°11' E 000°34'510.5
2018-Jan-28 21:00N 04°15' E 000°37'610.3
2018-Jan-28 20:26N 04°19' E 000°42'3 7.7
2018-Jan-28 20:00N 04°21' E 000°44'1 1.2
2018-Jan-28 19:20N 04°21' E 000°43'0 1.4
2018-Jan-28 19:00N 04°21' E 000°43'2 1.4
2018-Jan-28 17:43N 04°20' E 000°41'29 1.3
2018-Jan-27 20:07N 03°60' E 000°21'6 0.8
2018-Jan-27 12:27N 03°59' E 000°27'1 1.3
2018-Jan-27 11:38N 03°58' E 000°26'1 1.3
2018-Jan-27 11:04N 03°57' E 000°26'0 1.3
2018-Jan-27 10:58N 03°57' E 000°26'2 1.4
2018-Jan-27 09:38N 03°55' E 000°25'0 1.3
2018-Jan-27 09:29N 03°55' E 000°25'1 1.3
2018-Jan-27 08:55N 03°55' E 000°25'1 1.3
2018-Jan-27 08:22N 03°54' E 000°24'  

Dump ship's entire track history